sensor_id;sensor_type;location;lat;lon;timestamp;pressure;altitude;pressure_sealevel;temperature;humidity
79645;BME280;69117;47.148;18.954;2023-11-19T00:01:24;101174.53;;;0.12;100.00
79645;BME280;69117;47.148;18.954;2023-11-19T00:04:26;101181.78;;;0.04;100.00
79645;BME280;69117;47.148;18.954;2023-11-19T00:07:28;101188.84;;;0.00;100.00
79645;BME280;69117;47.148;18.954;2023-11-19T00:10:36;101182.75;;;-0.01;100.00
79645;BME280;69117;47.148;18.954;2023-11-19T00:13:37;101154.44;;;-0.07;100.00
79645;BME280;69117;47.148;18.954;2023-11-19T00:16:39;101156.53;;;0.07;100.00
79645;BME280;69117;47.148;18.954;2023-11-19T00:19:41;101156.75;;;0.25;100.00
79645;BME280;69117;47.148;18.954;2023-11-19T00:22:43;101161.88;;;0.26;100.00
79645;BME280;69117;47.148;18.954;2023-11-19T00:25:47;101165.19;;;0.30;100.00
79645;BME280;69117;47.148;18.954;2023-11-19T00:28:49;101178.47;;;0.45;100.00
79645;BME280;69117;47.148;18.954;2023-11-19T00:31:51;101164.31;;;0.53;100.00
79645;BME280;69117;47.148;18.954;2023-11-19T00:34:53;101184.09;;;0.79;100.00
79645;BME280;69117;47.148;18.954;2023-11-19T00:37:55;101171.69;;;0.85;100.00
79645;BME280;69117;47.148;18.954;2023-11-19T00:40:56;101164.13;;;0.79;100.00
79645;BME280;69117;47.148;18.954;2023-11-19T00:43:58;101167.63;;;0.78;100.00
79645;BME280;69117;47.148;18.954;2023-11-19T00:47:01;101160.69;;;0.79;100.00
79645;BME280;69117;47.148;18.954;2023-11-19T00:50:03;101153.00;;;0.76;100.00
79645;BME280;69117;47.148;18.954;2023-11-19T00:53:05;101141.84;;;0.72;100.00
79645;BME280;69117;47.148;18.954;2023-11-19T00:56:07;101148.81;;;0.72;100.00
79645;BME280;69117;47.148;18.954;2023-11-19T00:59:08;101156.50;;;0.75;100.00
79645;BME280;69117;47.148;18.954;2023-11-19T01:02:10;101146.47;;;0.65;100.00
79645;BME280;69117;47.148;18.954;2023-11-19T01:05:12;101138.78;;;0.62;100.00
79645;BME280;69117;47.148;18.954;2023-11-19T01:08:16;101146.00;;;0.56;100.00
79645;BME280;69117;47.148;18.954;2023-11-19T01:11:21;101137.88;;;0.41;100.00
79645;BME280;69117;47.148;18.954;2023-11-19T01:14:23;101136.31;;;0.37;100.00
79645;BME280;69117;47.148;18.954;2023-11-19T01:17:24;101149.00;;;0.23;100.00
79645;BME280;69117;47.148;18.954;2023-11-19T01:20:26;101146.59;;;0.18;100.00
79645;BME280;69117;47.148;18.954;2023-11-19T01:23:28;101128.56;;;0.14;100.00
79645;BME280;69117;47.148;18.954;2023-11-19T01:26:30;101150.03;;;0.19;100.00
79645;BME280;69117;47.148;18.954;2023-11-19T01:29:31;101150.31;;;0.11;100.00
79645;BME280;69117;47.148;18.954;2023-11-19T01:32:33;101142.59;;;0.32;100.00
79645;BME280;69117;47.148;18.954;2023-11-19T01:35:34;101146.72;;;0.37;100.00
79645;BME280;69117;47.148;18.954;2023-11-19T01:38:36;101140.00;;;0.32;100.00
79645;BME280;69117;47.148;18.954;2023-11-19T01:41:38;101147.28;;;0.45;100.00
79645;BME280;69117;47.148;18.954;2023-11-19T01:44:42;101137.28;;;0.57;100.00
79645;BME280;69117;47.148;18.954;2023-11-19T01:47:44;101128.03;;;0.50;100.00
79645;BME280;69117;47.148;18.954;2023-11-19T01:50:46;101126.16;;;0.53;100.00
79645;BME280;69117;47.148;18.954;2023-11-19T01:53:47;101119.44;;;0.48;100.00
79645;BME280;69117;47.148;18.954;2023-11-19T01:56:52;101099.75;;;0.42;100.00
79645;BME280;69117;47.148;18.954;2023-11-19T01:59:58;101107.25;;;0.50;100.00
79645;BME280;69117;47.148;18.954;2023-11-19T02:03:00;101102.72;;;0.55;100.00
79645;BME280;69117;47.148;18.954;2023-11-19T02:06:03;101098.38;;;0.55;100.00
79645;BME280;69117;47.148;18.954;2023-11-19T02:09:05;101076.09;;;0.48;100.00
79645;BME280;69117;47.148;18.954;2023-11-19T02:12:09;101085.97;;;0.62;100.00
79645;BME280;69117;47.148;18.954;2023-11-19T02:15:13;101085.28;;;0.57;100.00
79645;BME280;69117;47.148;18.954;2023-11-19T02:18:18;101087.88;;;0.57;100.00
79645;BME280;69117;47.148;18.954;2023-11-19T02:21:20;101074.75;;;0.39;100.00
79645;BME280;69117;47.148;18.954;2023-11-19T02:24:22;101094.75;;;0.37;100.00
79645;BME280;69117;47.148;18.954;2023-11-19T02:27:43;101088.44;;;0.21;100.00
79645;BME280;69117;47.148;18.954;2023-11-19T02:30:46;101086.88;;;0.17;100.00
79645;BME280;69117;47.148;18.954;2023-11-19T02:33:47;101069.97;;;0.07;100.00
79645;BME280;69117;47.148;18.954;2023-11-19T02:36:51;101074.25;;;0.08;100.00
79645;BME280;69117;47.148;18.954;2023-11-19T02:39:55;101076.25;;;0.01;100.00
79645;BME280;69117;47.148;18.954;2023-11-19T02:42:56;101078.16;;;-0.04;100.00
79645;BME280;69117;47.148;18.954;2023-11-19T02:46:03;101096.72;;;0.09;100.00
79645;BME280;69117;47.148;18.954;2023-11-19T02:49:12;101078.94;;;0.21;100.00
79645;BME280;69117;47.148;18.954;2023-11-19T02:52:14;101068.78;;;0.15;100.00
79645;BME280;69117;47.148;18.954;2023-11-19T02:55:16;101051.72;;;0.08;100.00
79645;BME280;69117;47.148;18.954;2023-11-19T02:58:19;101061.66;;;-0.03;100.00
79645;BME280;69117;47.148;18.954;2023-11-19T03:01:25;101057.72;;;-0.12;100.00
79645;BME280;69117;47.148;18.954;2023-11-19T03:04:35;101057.97;;;-0.19;100.00
79645;BME280;69117;47.148;18.954;2023-11-19T03:07:36;101056.00;;;-0.13;100.00
79645;BME280;69117;47.148;18.954;2023-11-19T03:10:38;101038.91;;;-0.18;100.00
79645;BME280;69117;47.148;18.954;2023-11-19T03:13:40;101046.31;;;-0.09;100.00
79645;BME280;69117;47.148;18.954;2023-11-19T03:16:45;101046.16;;;-0.05;100.00
79645;BME280;69117;47.148;18.954;2023-11-19T03:19:48;101036.63;;;-0.04;100.00
79645;BME280;69117;47.148;18.954;2023-11-19T03:22:50;101020.44;;;-0.11;100.00
79645;BME280;69117;47.148;18.954;2023-11-19T03:25:53;101025.22;;;0.00;100.00
79645;BME280;69117;47.148;18.954;2023-11-19T03:28:55;101036.72;;;0.15;100.00
79645;BME280;69117;47.148;18.954;2023-11-19T03:31:58;101028.94;;;0.15;100.00
79645;BME280;69117;47.148;18.954;2023-11-19T03:35:00;101024.34;;;-0.01;100.00
79645;BME280;69117;47.148;18.954;2023-11-19T03:38:02;101025.78;;;-0.15;100.00
79645;BME280;69117;47.148;18.954;2023-11-19T03:41:13;101035.69;;;-0.25;100.00
79645;BME280;69117;47.148;18.954;2023-11-19T03:44:15;101045.31;;;-0.27;100.00
79645;BME280;69117;47.148;18.954;2023-11-19T03:47:17;101020.59;;;-0.37;100.00
79645;BME280;69117;47.148;18.954;2023-11-19T03:50:18;101008.56;;;-0.40;100.00
79645;BME280;69117;47.148;18.954;2023-11-19T03:53:21;100997.31;;;-0.39;100.00
79645;BME280;69117;47.148;18.954;2023-11-19T03:56:23;100983.94;;;-0.52;100.00
79645;BME280;69117;47.148;18.954;2023-11-19T03:59:25;100980.38;;;-0.49;100.00
79645;BME280;69117;47.148;18.954;2023-11-19T04:02:26;100973.63;;;-0.53;100.00
79645;BME280;69117;47.148;18.954;2023-11-19T04:05:29;100985.28;;;-0.41;100.00
79645;BME280;69117;47.148;18.954;2023-11-19T04:08:30;100977.44;;;-0.40;100.00
79645;BME280;69117;47.148;18.954;2023-11-19T04:11:32;100955.94;;;-0.43;100.00
79645;BME280;69117;47.148;18.954;2023-11-19T04:14:34;100968.81;;;-0.40;100.00
79645;BME280;69117;47.148;18.954;2023-11-19T04:17:37;100980.56;;;-0.54;100.00
79645;BME280;69117;47.148;18.954;2023-11-19T04:20:39;100976.50;;;-0.61;100.00
79645;BME280;69117;47.148;18.954;2023-11-19T04:23:40;100960.19;;;-0.64;100.00
79645;BME280;69117;47.148;18.954;2023-11-19T04:26:43;100951.13;;;-0.53;100.00
79645;BME280;69117;47.148;18.954;2023-11-19T04:29:46;100950.31;;;-0.55;100.00
79645;BME280;69117;47.148;18.954;2023-11-19T04:32:48;100944.09;;;-0.73;100.00
79645;BME280;69117;47.148;18.954;2023-11-19T04:35:50;100955.44;;;-0.75;100.00
79645;BME280;69117;47.148;18.954;2023-11-19T04:38:51;100936.63;;;-0.82;100.00
79645;BME280;69117;47.148;18.954;2023-11-19T04:41:53;100944.25;;;-0.77;100.00
79645;BME280;69117;47.148;18.954;2023-11-19T04:44:55;100929.09;;;-0.88;100.00
79645;BME280;69117;47.148;18.954;2023-11-19T04:47:57;100930.66;;;-1.06;100.00
79645;BME280;69117;47.148;18.954;2023-11-19T04:50:58;100954.63;;;-1.01;100.00
79645;BME280;69117;47.148;18.954;2023-11-19T04:54:00;100955.66;;;-1.05;100.00
79645;BME280;69117;47.148;18.954;2023-11-19T04:57:01;100954.84;;;-1.07;100.00
79645;BME280;69117;47.148;18.954;2023-11-19T05:00:11;100985.19;;;-0.85;100.00
79645;BME280;69117;47.148;18.954;2023-11-19T05:03:15;100993.44;;;-0.74;100.00
79645;BME280;69117;47.148;18.954;2023-11-19T05:06:17;100980.19;;;-0.66;100.00
79645;BME280;69117;47.148;18.954;2023-11-19T05:09:19;100976.34;;;-0.56;100.00
79645;BME280;69117;47.148;18.954;2023-11-19T05:12:20;100972.78;;;-0.54;100.00
79645;BME280;69117;47.148;18.954;2023-11-19T05:15:22;100974.22;;;-0.47;100.00
79645;BME280;69117;47.148;18.954;2023-11-19T05:18:24;100977.38;;;-0.38;100.00
79645;BME280;69117;47.148;18.954;2023-11-19T05:21:25;100975.59;;;-0.36;100.00
79645;BME280;69117;47.148;18.954;2023-11-19T05:24:27;100977.81;;;-0.27;100.00
79645;BME280;69117;47.148;18.954;2023-11-19T05:27:29;100979.38;;;-0.23;100.00
79645;BME280;69117;47.148;18.954;2023-11-19T05:30:30;100976.53;;;-0.17;100.00
79645;BME280;69117;47.148;18.954;2023-11-19T05:33:32;100980.69;;;-0.13;100.00
79645;BME280;69117;47.148;18.954;2023-11-19T05:36:33;100976.34;;;-0.12;100.00
79645;BME280;69117;47.148;18.954;2023-11-19T05:39:35;100959.47;;;-0.22;100.00
79645;BME280;69117;47.148;18.954;2023-11-19T05:42:37;100972.28;;;-0.18;100.00
79645;BME280;69117;47.148;18.954;2023-11-19T05:45:38;100967.97;;;-0.19;100.00
79645;BME280;69117;47.148;18.954;2023-11-19T05:48:40;100968.09;;;-0.22;100.00
79645;BME280;69117;47.148;18.954;2023-11-19T05:51:42;100955.47;;;-0.31;100.00
79645;BME280;69117;47.148;18.954;2023-11-19T05:54:43;100953.31;;;-0.42;100.00
79645;BME280;69117;47.148;18.954;2023-11-19T05:57:45;100957.03;;;-0.49;100.00
79645;BME280;69117;47.148;18.954;2023-11-19T06:00:47;100961.09;;;-0.42;100.00
79645;BME280;69117;47.148;18.954;2023-11-19T06:03:49;100932.94;;;-0.53;100.00
79645;BME280;69117;47.148;18.954;2023-11-19T06:06:52;100955.72;;;-0.37;100.00
79645;BME280;69117;47.148;18.954;2023-11-19T06:09:53;100959.22;;;-0.38;100.00
79645;BME280;69117;47.148;18.954;2023-11-19T06:12:55;100956.63;;;-0.38;100.00
79645;BME280;69117;47.148;18.954;2023-11-19T06:15:58;100960.78;;;-0.34;100.00
79645;BME280;69117;47.148;18.954;2023-11-19T06:19:00;100962.00;;;-0.21;100.00
79645;BME280;69117;47.148;18.954;2023-11-19T06:22:02;100953.78;;;-0.10;100.00
79645;BME280;69117;47.148;18.954;2023-11-19T06:25:04;100958.06;;;0.13;100.00
79645;BME280;69117;47.148;18.954;2023-11-19T06:28:09;100952.53;;;0.20;100.00
79645;BME280;69117;47.148;18.954;2023-11-19T06:31:11;100946.63;;;0.37;100.00
79645;BME280;69117;47.148;18.954;2023-11-19T06:34:13;100934.94;;;0.48;100.00
79645;BME280;69117;47.148;18.954;2023-11-19T06:37:14;100929.63;;;0.69;100.00
79645;BME280;69117;47.148;18.954;2023-11-19T06:40:16;100926.16;;;0.89;100.00
79645;BME280;69117;47.148;18.954;2023-11-19T06:43:18;100930.13;;;1.17;100.00
79645;BME280;69117;47.148;18.954;2023-11-19T06:46:20;100929.56;;;1.29;100.00
79645;BME280;69117;47.148;18.954;2023-11-19T06:49:22;100933.63;;;1.54;100.00
79645;BME280;69117;47.148;18.954;2023-11-19T06:52:24;100913.47;;;1.76;100.00
79645;BME280;69117;47.148;18.954;2023-11-19T06:55:27;100920.09;;;2.01;100.00
79645;BME280;69117;47.148;18.954;2023-11-19T06:58:29;100903.59;;;2.18;100.00
79645;BME280;69117;47.148;18.954;2023-11-19T07:01:34;100904.38;;;2.37;100.00
79645;BME280;69117;47.148;18.954;2023-11-19T07:04:36;100900.75;;;2.40;100.00
79645;BME280;69117;47.148;18.954;2023-11-19T07:07:38;100889.72;;;2.68;100.00
79645;BME280;69117;47.148;18.954;2023-11-19T07:10:42;100888.03;;;3.00;100.00
79645;BME280;69117;47.148;18.954;2023-11-19T07:13:43;100907.06;;;3.34;100.00
79645;BME280;69117;47.148;18.954;2023-11-19T07:16:47;100898.03;;;3.55;100.00
79645;BME280;69117;47.148;18.954;2023-11-19T07:19:52;100896.59;;;3.81;100.00
79645;BME280;69117;47.148;18.954;2023-11-19T07:22:53;100887.81;;;3.82;100.00
79645;BME280;69117;47.148;18.954;2023-11-19T07:25:58;100879.50;;;3.44;100.00
79645;BME280;69117;47.148;18.954;2023-11-19T07:29:00;100895.16;;;3.60;100.00
79645;BME280;69117;47.148;18.954;2023-11-19T07:32:03;100907.00;;;3.51;100.00
79645;BME280;69117;47.148;18.954;2023-11-19T07:35:06;100912.38;;;3.48;100.00
79645;BME280;69117;47.148;18.954;2023-11-19T07:38:08;100908.50;;;3.55;100.00
79645;BME280;69117;47.148;18.954;2023-11-19T07:41:10;100915.81;;;3.33;100.00
79645;BME280;69117;47.148;18.954;2023-11-19T07:44:14;100907.25;;;3.31;100.00
79645;BME280;69117;47.148;18.954;2023-11-19T07:47:16;100909.94;;;3.45;100.00
79645;BME280;69117;47.148;18.954;2023-11-19T07:50:17;100909.25;;;3.41;100.00
79645;BME280;69117;47.148;18.954;2023-11-19T07:53:21;100911.84;;;3.41;100.00
79645;BME280;69117;47.148;18.954;2023-11-19T07:56:23;100922.03;;;3.62;100.00
79645;BME280;69117;47.148;18.954;2023-11-19T07:59:25;100926.94;;;3.68;100.00
79645;BME280;69117;47.148;18.954;2023-11-19T08:02:27;100912.03;;;3.54;100.00
79645;BME280;69117;47.148;18.954;2023-11-19T08:05:30;100933.50;;;3.59;100.00
79645;BME280;69117;47.148;18.954;2023-11-19T08:08:32;100926.50;;;3.60;100.00
79645;BME280;69117;47.148;18.954;2023-11-19T08:11:35;100909.25;;;3.57;100.00
79645;BME280;69117;47.148;18.954;2023-11-19T08:14:36;100908.41;;;3.57;100.00
79645;BME280;69117;47.148;18.954;2023-11-19T08:17:41;100906.47;;;3.60;100.00
79645;BME280;69117;47.148;18.954;2023-11-19T08:20:43;100910.50;;;3.66;100.00
79645;BME280;69117;47.148;18.954;2023-11-19T08:23:46;100898.81;;;3.57;100.00
79645;BME280;69117;47.148;18.954;2023-11-19T08:26:47;100883.53;;;3.65;100.00
79645;BME280;69117;47.148;18.954;2023-11-19T08:30:04;100872.66;;;3.73;100.00
79645;BME280;69117;47.148;18.954;2023-11-19T08:33:07;100867.16;;;3.78;100.00
79645;BME280;69117;47.148;18.954;2023-11-19T08:36:15;100852.47;;;3.61;100.00
79645;BME280;69117;47.148;18.954;2023-11-19T08:39:16;100820.88;;;3.80;100.00
79645;BME280;69117;47.148;18.954;2023-11-19T08:42:18;100822.47;;;3.82;100.00
79645;BME280;69117;47.148;18.954;2023-11-19T08:45:20;100813.09;;;3.94;100.00
79645;BME280;69117;47.148;18.954;2023-11-19T08:48:21;100834.28;;;4.04;100.00
79645;BME280;69117;47.148;18.954;2023-11-19T08:51:24;100862.09;;;4.05;100.00
79645;BME280;69117;47.148;18.954;2023-11-19T08:54:26;100862.94;;;4.05;100.00
79645;BME280;69117;47.148;18.954;2023-11-19T08:57:28;100849.69;;;4.08;100.00
79645;BME280;69117;47.148;18.954;2023-11-19T09:00:29;100827.03;;;4.09;100.00
79645;BME280;69117;47.148;18.954;2023-11-19T09:03:33;100824.91;;;4.30;100.00
79645;BME280;69117;47.148;18.954;2023-11-19T09:06:36;100831.63;;;4.48;100.00
79645;BME280;69117;47.148;18.954;2023-11-19T09:09:38;100821.91;;;4.36;100.00
79645;BME280;69117;47.148;18.954;2023-11-19T09:12:39;100841.97;;;4.50;100.00
79645;BME280;69117;47.148;18.954;2023-11-19T09:15:41;100853.56;;;4.46;100.00
79645;BME280;69117;47.148;18.954;2023-11-19T09:18:44;100842.44;;;4.56;100.00
79645;BME280;69117;47.148;18.954;2023-11-19T09:21:45;100837.97;;;4.58;100.00
79645;BME280;69117;47.148;18.954;2023-11-19T09:24:47;100850.59;;;4.52;100.00
79645;BME280;69117;47.148;18.954;2023-11-19T09:27:49;100848.06;;;4.65;100.00
79645;BME280;69117;47.148;18.954;2023-11-19T09:30:51;100840.03;;;4.68;100.00
79645;BME280;69117;47.148;18.954;2023-11-19T09:33:53;100815.81;;;4.78;100.00
79645;BME280;69117;47.148;18.954;2023-11-19T09:36:55;100815.25;;;4.88;100.00
79645;BME280;69117;47.148;18.954;2023-11-19T09:39:56;100829.75;;;4.65;100.00
79645;BME280;69117;47.148;18.954;2023-11-19T09:42:58;100831.72;;;4.75;100.00
79645;BME280;69117;47.148;18.954;2023-11-19T09:46:04;100815.50;;;4.83;100.00
79645;BME280;69117;47.148;18.954;2023-11-19T09:49:08;100823.22;;;4.99;100.00
79645;BME280;69117;47.148;18.954;2023-11-19T09:52:10;100822.72;;;4.65;100.00
79645;BME280;69117;47.148;18.954;2023-11-19T09:55:12;100814.75;;;5.22;100.00
79645;BME280;69117;47.148;18.954;2023-11-19T09:58:15;100805.59;;;5.30;100.00
79645;BME280;69117;47.148;18.954;2023-11-19T10:01:17;100786.56;;;5.53;100.00
79645;BME280;69117;47.148;18.954;2023-11-19T10:04:29;100785.28;;;5.06;100.00
79645;BME280;69117;47.148;18.954;2023-11-19T10:07:35;100794.31;;;5.42;100.00
79645;BME280;69117;47.148;18.954;2023-11-19T10:10:37;100787.50;;;5.52;100.00
79645;BME280;69117;47.148;18.954;2023-11-19T10:13:39;100783.25;;;5.89;100.00
79645;BME280;69117;47.148;18.954;2023-11-19T10:16:41;100784.66;;;5.42;100.00
79645;BME280;69117;47.148;18.954;2023-11-19T10:19:44;100778.91;;;6.03;100.00
79645;BME280;69117;47.148;18.954;2023-11-19T10:22:45;100782.44;;;5.89;100.00
79645;BME280;69117;47.148;18.954;2023-11-19T10:25:47;100784.91;;;5.52;100.00
79645;BME280;69117;47.148;18.954;2023-11-19T10:28:49;100772.97;;;5.61;100.00
79645;BME280;69117;47.148;18.954;2023-11-19T10:31:58;100764.34;;;5.59;100.00
79645;BME280;69117;47.148;18.954;2023-11-19T10:35:20;100766.22;;;5.57;100.00
79645;BME280;69117;47.148;18.954;2023-11-19T10:38:22;100764.63;;;5.41;100.00
79645;BME280;69117;47.148;18.954;2023-11-19T10:41:31;100766.31;;;5.42;100.00
79645;BME280;69117;47.148;18.954;2023-11-19T10:44:33;100747.25;;;5.40;100.00
79645;BME280;69117;47.148;18.954;2023-11-19T10:47:38;100752.13;;;5.72;100.00
79645;BME280;69117;47.148;18.954;2023-11-19T10:50:44;100742.78;;;5.68;100.00
79645;BME280;69117;47.148;18.954;2023-11-19T10:53:49;100733.13;;;5.68;100.00
79645;BME280;69117;47.148;18.954;2023-11-19T10:56:58;100718.75;;;5.48;100.00
79645;BME280;69117;47.148;18.954;2023-11-19T11:00:03;100707.16;;;5.78;100.00
79645;BME280;69117;47.148;18.954;2023-11-19T11:03:19;100720.59;;;5.99;100.00
79645;BME280;69117;47.148;18.954;2023-11-19T11:06:22;100729.41;;;5.98;100.00
79645;BME280;69117;47.148;18.954;2023-11-19T11:09:27;100716.69;;;6.05;100.00
79645;BME280;69117;47.148;18.954;2023-11-19T11:12:35;100701.28;;;6.13;100.00
79645;BME280;69117;47.148;18.954;2023-11-19T11:15:38;100702.13;;;6.01;100.00
79645;BME280;69117;47.148;18.954;2023-11-19T11:18:40;100707.78;;;6.07;100.00
79645;BME280;69117;47.148;18.954;2023-11-19T11:21:44;100705.78;;;6.11;100.00
79645;BME280;69117;47.148;18.954;2023-11-19T11:28:03;100690.53;;;6.29;100.00
79645;BME280;69117;47.148;18.954;2023-11-19T11:37:49;100675.97;;;6.61;100.00
79645;BME280;69117;47.148;18.954;2023-11-19T11:41:16;100676.69;;;6.87;100.00
79645;BME280;69117;47.148;18.954;2023-11-19T11:45:00;100671.75;;;6.83;100.00
79645;BME280;69117;47.148;18.954;2023-11-19T11:48:09;100656.91;;;6.47;100.00
79645;BME280;69117;47.148;18.954;2023-11-19T11:51:12;100664.91;;;6.32;100.00
79645;BME280;69117;47.148;18.954;2023-11-19T11:57:21;100653.63;;;7.15;100.00
79645;BME280;69117;47.148;18.954;2023-11-19T12:00:28;100642.56;;;6.99;100.00
79645;BME280;69117;47.148;18.954;2023-11-19T12:03:32;100620.72;;;6.98;100.00
79645;BME280;69117;47.148;18.954;2023-11-19T12:06:35;100626.22;;;6.95;100.00
79645;BME280;69117;47.148;18.954;2023-11-19T12:09:40;100623.50;;;7.08;100.00
79645;BME280;69117;47.148;18.954;2023-11-19T12:12:42;100607.22;;;6.92;100.00
79645;BME280;69117;47.148;18.954;2023-11-19T12:19:02;100613.91;;;7.98;100.00
79645;BME280;69117;47.148;18.954;2023-11-19T12:22:10;100601.13;;;8.05;100.00
79645;BME280;69117;47.148;18.954;2023-11-19T12:25:13;100601.72;;;8.09;100.00
79645;BME280;69117;47.148;18.954;2023-11-19T12:28:15;100600.09;;;8.40;100.00
79645;BME280;69117;47.148;18.954;2023-11-19T12:31:20;100593.22;;;8.60;100.00
79645;BME280;69117;47.148;18.954;2023-11-19T12:34:21;100582.66;;;8.16;100.00
79645;BME280;69117;47.148;18.954;2023-11-19T12:37:26;100586.31;;;7.70;100.00
79645;BME280;69117;47.148;18.954;2023-11-19T12:40:28;100584.03;;;7.88;100.00
79645;BME280;69117;47.148;18.954;2023-11-19T12:43:31;100571.56;;;7.00;100.00
79645;BME280;69117;47.148;18.954;2023-11-19T12:47:05;100578.34;;;6.92;100.00
79645;BME280;69117;47.148;18.954;2023-11-19T12:50:13;100567.09;;;6.89;100.00
79645;BME280;69117;47.148;18.954;2023-11-19T12:53:14;100565.34;;;6.55;100.00
79645;BME280;69117;47.148;18.954;2023-11-19T12:56:17;100549.09;;;6.50;100.00
79645;BME280;69117;47.148;18.954;2023-11-19T12:59:18;100549.00;;;6.51;100.00
79645;BME280;69117;47.148;18.954;2023-11-19T13:02:20;100543.88;;;6.61;100.00
79645;BME280;69117;47.148;18.954;2023-11-19T13:05:25;100531.09;;;6.21;100.00
79645;BME280;69117;47.148;18.954;2023-11-19T13:08:28;100518.41;;;6.39;100.00
79645;BME280;69117;47.148;18.954;2023-11-19T13:11:31;100511.53;;;6.25;100.00
79645;BME280;69117;47.148;18.954;2023-11-19T13:14:36;100509.50;;;6.53;100.00
79645;BME280;69117;47.148;18.954;2023-11-19T13:17:41;100511.88;;;6.45;100.00
79645;BME280;69117;47.148;18.954;2023-11-19T13:20:43;100513.53;;;6.46;100.00
79645;BME280;69117;47.148;18.954;2023-11-19T13:23:45;100492.06;;;6.16;100.00
79645;BME280;69117;47.148;18.954;2023-11-19T13:26:46;100508.69;;;6.28;100.00
79645;BME280;69117;47.148;18.954;2023-11-19T13:29:48;100518.28;;;6.40;100.00
79645;BME280;69117;47.148;18.954;2023-11-19T13:32:50;100514.44;;;6.33;100.00
79645;BME280;69117;47.148;18.954;2023-11-19T13:35:53;100521.28;;;6.47;100.00
79645;BME280;69117;47.148;18.954;2023-11-19T13:38:54;100518.22;;;6.29;100.00
79645;BME280;69117;47.148;18.954;2023-11-19T13:42:00;100521.34;;;6.34;100.00
79645;BME280;69117;47.148;18.954;2023-11-19T13:45:09;100518.56;;;6.25;100.00
79645;BME280;69117;47.148;18.954;2023-11-19T13:48:14;100523.91;;;6.23;100.00
79645;BME280;69117;47.148;18.954;2023-11-19T13:51:16;100533.50;;;6.35;100.00
79645;BME280;69117;47.148;18.954;2023-11-19T13:54:18;100528.72;;;6.29;100.00
79645;BME280;69117;47.148;18.954;2023-11-19T13:57:21;100518.19;;;6.18;100.00
79645;BME280;69117;47.148;18.954;2023-11-19T14:00:22;100493.78;;;6.05;100.00
79645;BME280;69117;47.148;18.954;2023-11-19T14:03:25;100505.91;;;6.18;100.00
79645;BME280;69117;47.148;18.954;2023-11-19T14:06:27;100501.00;;;6.14;100.00
79645;BME280;69117;47.148;18.954;2023-11-19T14:09:29;100499.00;;;6.17;100.00
79645;BME280;69117;47.148;18.954;2023-11-19T14:12:31;100487.78;;;6.15;100.00
79645;BME280;69117;47.148;18.954;2023-11-19T14:15:34;100490.78;;;5.98;100.00
79645;BME280;69117;47.148;18.954;2023-11-19T14:18:36;100495.28;;;5.96;100.00
79645;BME280;69117;47.148;18.954;2023-11-19T14:21:38;100501.16;;;5.87;100.00
79645;BME280;69117;47.148;18.954;2023-11-19T14:24:40;100488.19;;;5.85;100.00
79645;BME280;69117;47.148;18.954;2023-11-19T14:27:43;100495.44;;;5.82;100.00
79645;BME280;69117;47.148;18.954;2023-11-19T14:30:47;100484.63;;;5.86;100.00
79645;BME280;69117;47.148;18.954;2023-11-19T14:33:55;100494.47;;;5.95;100.00
79645;BME280;69117;47.148;18.954;2023-11-19T14:36:58;100510.63;;;6.02;100.00
79645;BME280;69117;47.148;18.954;2023-11-19T14:40:00;100497.28;;;5.92;100.00
79645;BME280;69117;47.148;18.954;2023-11-19T14:43:03;100491.78;;;5.84;100.00
79645;BME280;69117;47.148;18.954;2023-11-19T14:46:05;100470.59;;;5.74;100.00
79645;BME280;69117;47.148;18.954;2023-11-19T14:49:08;100487.66;;;5.93;100.00
79645;BME280;69117;47.148;18.954;2023-11-19T14:52:10;100480.44;;;5.96;100.00
79645;BME280;69117;47.148;18.954;2023-11-19T14:55:15;100488.81;;;5.89;100.00
79645;BME280;69117;47.148;18.954;2023-11-19T14:58:16;100490.47;;;5.90;100.00
79645;BME280;69117;47.148;18.954;2023-11-19T15:01:18;100489.25;;;5.83;100.00
79645;BME280;69117;47.148;18.954;2023-11-19T15:04:20;100495.22;;;5.85;100.00
79645;BME280;69117;47.148;18.954;2023-11-19T15:07:22;100495.88;;;5.76;100.00
79645;BME280;69117;47.148;18.954;2023-11-19T15:10:24;100486.44;;;5.73;100.00
79645;BME280;69117;47.148;18.954;2023-11-19T15:13:27;100493.25;;;5.76;100.00
79645;BME280;69117;47.148;18.954;2023-11-19T15:16:28;100496.38;;;5.81;100.00
79645;BME280;69117;47.148;18.954;2023-11-19T15:19:36;100483.00;;;5.72;100.00
79645;BME280;69117;47.148;18.954;2023-11-19T15:22:37;100480.38;;;5.72;100.00
79645;BME280;69117;47.148;18.954;2023-11-19T15:25:39;100476.19;;;5.70;100.00
79645;BME280;69117;47.148;18.954;2023-11-19T15:28:41;100473.34;;;5.73;100.00
79645;BME280;69117;47.148;18.954;2023-11-19T15:31:42;100481.22;;;5.73;100.00
79645;BME280;69117;47.148;18.954;2023-11-19T15:34:44;100494.53;;;5.70;100.00
79645;BME280;69117;47.148;18.954;2023-11-19T15:37:46;100498.50;;;5.76;100.00
79645;BME280;69117;47.148;18.954;2023-11-19T15:40:47;100498.38;;;5.77;100.00
79645;BME280;69117;47.148;18.954;2023-11-19T15:43:49;100494.09;;;5.76;100.00
79645;BME280;69117;47.148;18.954;2023-11-19T15:46:51;100498.13;;;5.69;100.00
79645;BME280;69117;47.148;18.954;2023-11-19T15:49:53;100485.50;;;5.74;100.00
79645;BME280;69117;47.148;18.954;2023-11-19T15:52:54;100480.69;;;5.68;100.00
79645;BME280;69117;47.148;18.954;2023-11-19T15:55:59;100469.66;;;5.51;100.00
79645;BME280;69117;47.148;18.954;2023-11-19T15:59:01;100488.28;;;5.47;100.00